Time;durP1;ratioP1;P1;durP2;ratioP2;P2;SDS_P1;SDS_P2;PMS_P1;PMS_P2;Temp;Humidity;BMP_temperature;BMP_pressure;BME280_temperature;BME280_humidity;BME280_pressure;Samples;Min_cycle;Max_cycle;Signal;HPM_P1;HPM_P2
2022/05/11 00:01:47;;;;;;;7.97;7.15;;;;;;;;;;5068745;28;20111;-63
2022/05/11 00:04:14;;;;;;;7.32;6.82;;;;;;;;;;5066475;28;20033;-63
2022/05/11 00:06:39;;;;;;;6.85;6.35;;;;;;;;;;5068377;28;20033;-63
2022/05/11 00:09:07;;;;;;;7.22;6.72;;;;;;;;;;5068735;28;20570;-63
2022/05/11 00:11:34;;;;;;;7.47;6.97;;;;;;;;;;5068436;28;20481;-64
2022/05/11 00:14:00;;;;;;;7.25;6.75;;;;;;;;;;5068563;28;20044;-64
2022/05/11 00:16:27;;;;;;;8.25;7.70;;;;;;;;;;5067921;28;20089;-64
2022/05/11 00:18:53;;;;;;;8.02;7.50;;;;;;;;;;5066857;28;20150;-64
2022/05/11 00:21:19;;;;;;;7.72;7.18;;;;;;;;;;5068148;28;20095;-64
2022/05/11 00:23:44;;;;;;;6.55;6.03;;;;;;;;;;5068622;28;20060;-65
2022/05/11 00:26:10;;;;;;;8.13;7.57;;;;;;;;;;5068604;28;20429;-64
2022/05/11 00:28:36;;;;;;;6.65;6.15;;;;;;;;;;5083993;28;20024;-64
2022/05/11 00:31:02;;;;;;;7.13;6.63;;;;;;;;;;5068428;28;22041;-64
2022/05/11 00:33:27;;;;;;;7.35;6.85;;;;;;;;;;5066630;28;20039;-64
2022/05/11 00:35:53;;;;;;;5.90;5.50;;;;;;;;;;5067634;28;20024;-64
2022/05/11 00:38:26;;;;;;;6.90;6.40;;;;;;;;;;5067691;28;20028;-65
2022/05/11 00:40:55;;;;;;;6.93;6.43;;;;;;;;;;5067283;28;20032;-65
2022/05/11 00:43:40;;;;;;;7.43;6.93;;;;;;;;;;5068083;28;20036;-65
2022/05/11 00:46:39;;;;;;;7.07;6.57;;;;;;;;;;5067116;28;20032;-65
2022/05/11 00:51:58;;;;;;;8.43;7.82;;;;;;;;;;5067595;28;20123;-65
2022/05/11 00:54:27;;;;;;;6.78;6.28;;;;;;;;;;5067732;28;20469;-65
2022/05/11 00:56:57;;;;;;;7.18;6.57;;;;;;;;;;5076822;28;20044;-65
2022/05/11 00:59:28;;;;;;;9.35;8.63;;;;;;;;;;5067362;28;20019;-65
2022/05/11 01:01:53;;;;;;;7.90;7.30;;;;;;;;;;5067463;28;20043;-65
2022/05/11 01:04:21;;;;;;;6.55;6.05;;;;;;;;;;5067340;28;20393;-65
2022/05/11 01:06:47;;;;;;;8.20;7.55;;;;;;;;;;5067372;28;20123;-65
2022/05/11 01:09:13;;;;;;;7.15;6.65;;;;;;;;;;5067750;28;20680;-65
2022/05/11 01:11:45;;;;;;;7.45;6.85;;;;;;;;;;5067082;28;20975;-65
2022/05/11 01:14:14;;;;;;;7.75;7.15;;;;;;;;;;5067233;28;20043;-65
2022/05/11 01:16:40;;;;;;;8.48;7.88;;;;;;;;;;5066948;28;20031;-65
2022/05/11 01:19:08;;;;;;;6.55;6.05;;;;;;;;;;5066232;28;20060;-65
2022/05/11 01:21:44;;;;;;;7.40;6.90;;;;;;;;;;5067242;28;20127;-65
2022/05/11 01:24:34;;;;;;;7.57;6.97;;;;;;;;;;5067300;28;20036;-65
2022/05/11 01:27:35;;;;;;;6.35;5.85;;;;;;;;;;5065814;28;20063;-65
2022/05/11 01:30:21;;;;;;;7.65;7.05;;;;;;;;;;5049176;28;20047;-65
2022/05/11 01:32:51;;;;;;;7.03;6.53;;;;;;;;;;5066513;28;20460;-65
2022/05/11 01:35:27;;;;;;;7.28;6.78;;;;;;;;;;5065172;28;20032;-65
2022/05/11 01:38:06;;;;;;;6.55;6.07;;;;;;;;;;5066378;28;20060;-65
2022/05/11 01:40:32;;;;;;;7.15;6.65;;;;;;;;;;5066468;28;20462;-65
2022/05/11 01:42:57;;;;;;;6.78;6.28;;;;;;;;;;5066389;28;20058;-66
2022/05/11 01:45:23;;;;;;;7.50;6.90;;;;;;;;;;5067102;28;20476;-66
2022/05/11 01:47:48;;;;;;;7.63;7.03;;;;;;;;;;5066233;28;20357;-66
2022/05/11 01:50:13;;;;;;;8.00;7.18;;;;;;;;;;5066641;28;20035;-66
2022/05/11 01:52:39;;;;;;;7.32;6.82;;;;;;;;;;5064641;28;20034;-66
2022/05/11 01:55:05;;;;;;;7.50;7.00;;;;;;;;;;5067081;28;20032;-66
2022/05/11 01:57:30;;;;;;;8.30;7.70;;;;;;;;;;5066301;28;20036;-66
2022/05/11 01:59:55;;;;;;;7.25;6.75;;;;;;;;;;5066090;28;20479;-66
2022/05/11 02:02:21;;;;;;;6.80;6.30;;;;;;;;;;5066499;28;20567;-66
2022/05/11 02:10:14;;;;;;;6.63;6.13;;;;;;;;;;5066327;28;20682;-66
2022/05/11 02:12:40;;;;;;;8.43;7.82;;;;;;;;;;5065624;28;20028;-66
2022/05/11 02:15:06;;;;;;;7.47;6.95;;;;;;;;;;5066877;28;20103;-66
2022/05/11 02:17:31;;;;;;;7.95;6.93;;;;;;;;;;5066097;28;20101;-66
2022/05/11 02:19:56;;;;;;;9.65;8.85;;;;;;;;;;5065941;28;20037;-66
2022/05/11 02:22:22;;;;;;;9.13;8.52;;;;;;;;;;5066417;28;20056;-66
2022/05/11 02:24:47;;;;;;;8.68;7.95;;;;;;;;;;5066057;28;20060;-67
2022/05/11 02:27:13;;;;;;;8.10;7.50;;;;;;;;;;5065737;28;20082;-66
2022/05/11 02:29:38;;;;;;;8.07;7.50;;;;;;;;;;5065919;28;20416;-66
2022/05/11 02:32:04;;;;;;;8.25;7.55;;;;;;;;;;5066162;28;20020;-66
2022/05/11 02:37:13;;;;;;;8.15;7.55;;;;;;;;;;5066412;28;20044;-66
2022/05/11 02:39:39;;;;;;;8.20;7.60;;;;;;;;;;5066094;28;20035;-66
2022/05/11 02:42:05;;;;;;;8.18;7.57;;;;;;;;;;5064825;28;20124;-66
2022/05/11 02:44:30;;;;;;;8.23;7.63;;;;;;;;;;5065250;28;20549;-66
2022/05/11 02:46:56;;;;;;;7.22;6.72;;;;;;;;;;5065813;28;20033;-67
2022/05/11 02:49:22;;;;;;;8.75;8.15;;;;;;;;;;5064770;28;20146;-67
2022/05/11 02:51:47;;;;;;;8.18;7.57;;;;;;;;;;5065917;28;20117;-67
2022/05/11 02:54:12;;;;;;;8.43;7.82;;;;;;;;;;5050472;28;20036;-66
2022/05/11 02:56:38;;;;;;;7.82;7.22;;;;;;;;;;5065749;28;20029;-66
2022/05/11 02:59:03;;;;;;;8.05;7.45;;;;;;;;;;5065700;28;20028;-66
2022/05/11 03:01:28;;;;;;;8.68;7.97;;;;;;;;;;5065916;28;20029;-66
2022/05/11 03:03:54;;;;;;;8.18;7.57;;;;;;;;;;5065071;28;20086;-66
2022/05/11 03:06:20;;;;;;;8.27;7.68;;;;;;;;;;5066103;28;20082;-66
2022/05/11 03:08:45;;;;;;;9.00;8.40;;;;;;;;;;5065754;28;20028;-66
2022/05/11 03:11:11;;;;;;;9.07;8.40;;;;;;;;;;5065362;28;20036;-66
2022/05/11 03:13:37;;;;;;;9.98;9.20;;;;;;;;;;5064891;28;20020;-65
2022/05/11 03:16:02;;;;;;;9.35;8.75;;;;;;;;;;5065553;28;20082;-65
2022/05/11 03:18:28;;;;;;;10.23;9.48;;;;;;;;;;5065252;28;20098;-65
2022/05/11 03:20:58;;;;;;;10.70;10.00;;;;;;;;;;5065373;28;20035;-65
2022/05/11 03:23:25;;;;;;;10.57;9.88;;;;;;;;;;5064984;28;20097;-65
2022/05/11 03:25:51;;;;;;;12.07;11.27;;;;;;;;;;5065492;28;20139;-65
2022/05/11 03:28:16;;;;;;;10.45;9.48;;;;;;;;;;5065171;28;20063;-65
2022/05/11 03:30:41;;;;;;;10.65;9.95;;;;;;;;;;5065682;28;20029;-65
2022/05/11 03:35:51;;;;;;;11.38;10.60;;;;;;;;;;5064855;28;20016;-66
2022/05/11 03:38:16;;;;;;;10.18;9.48;;;;;;;;;;5065195;28;20035;-65
2022/05/11 03:40:42;;;;;;;10.70;10.00;;;;;;;;;;5064790;28;20127;-65
2022/05/11 03:43:07;;;;;;;10.30;9.60;;;;;;;;;;5054898;28;20067;-65
2022/05/11 03:45:32;;;;;;;11.25;10.48;;;;;;;;;;5065404;28;20025;-65
2022/05/11 03:47:58;;;;;;;10.23;9.43;;;;;;;;;;5064932;28;20029;-65
2022/05/11 03:50:24;;;;;;;10.13;9.40;;;;;;;;;;5066698;28;20020;-65
2022/05/11 03:52:51;;;;;;;9.60;8.98;;;;;;;;;;5068875;28;20024;-66
2022/05/11 03:55:18;;;;;;;8.98;8.38;;;;;;;;;;5069114;28;20056;-66
2022/05/11 03:57:43;;;;;;;9.75;9.15;;;;;;;;;;5067729;28;20036;-66
2022/05/11 04:00:12;;;;;;;9.50;8.90;;;;;;;;;;5068059;28;20028;-65
2022/05/11 04:02:39;;;;;;;11.70;10.90;;;;;;;;;;5068289;28;20410;-66
2022/05/11 04:05:05;;;;;;;9.55;8.95;;;;;;;;;;5067489;28;20351;-65
2022/05/11 04:07:32;;;;;;;11.10;10.40;;;;;;;;;;5069032;28;20532;-65
2022/05/11 04:09:57;;;;;;;10.40;9.70;;;;;;;;;;5067978;28;20024;-65
2022/05/11 04:12:24;;;;;;;9.68;9.07;;;;;;;;;;5068422;28;20062;-65
2022/05/11 04:14:50;;;;;;;11.07;10.20;;;;;;;;;;5068086;28;20069;-65
2022/05/11 04:17:15;;;;;;;10.00;9.30;;;;;;;;;;5068452;28;20032;-66
2022/05/11 04:19:40;;;;;;;10.80;10.10;;;;;;;;;;5083779;28;20028;-65
2022/05/11 04:22:06;;;;;;;9.23;8.63;;;;;;;;;;5068259;28;20035;-65
2022/05/11 04:24:31;;;;;;;11.82;11.10;;;;;;;;;;5068353;28;20490;-65
2022/05/11 04:26:56;;;;;;;9.88;9.23;;;;;;;;;;5067949;28;20040;-65
2022/05/11 04:29:22;;;;;;;10.50;9.73;;;;;;;;;;5068485;28;20028;-65
2022/05/11 04:31:55;;;;;;;10.45;9.75;;;;;;;;;;5068335;28;20020;-66
2022/05/11 04:34:21;;;;;;;9.88;9.25;;;;;;;;;;5067865;28;20033;-65
2022/05/11 04:36:47;;;;;;;11.35;10.55;;;;;;;;;;5067406;28;20093;-65
2022/05/11 04:39:12;;;;;;;10.30;9.60;;;;;;;;;;5068114;28;20116;-65
2022/05/11 04:41:37;;;;;;;9.93;9.23;;;;;;;;;;5067749;28;20119;-65
2022/05/11 04:44:03;;;;;;;10.18;9.48;;;;;;;;;;5068033;28;20039;-65
2022/05/11 04:46:28;;;;;;;8.82;8.23;;;;;;;;;;5068423;28;20031;-65
2022/05/11 04:49:16;;;;;;;10.85;10.05;;;;;;;;;;5062796;28;20614;-65
2022/05/11 04:52:02;;;;;;;9.77;9.07;;;;;;;;;;5067610;28;20508;-66
2022/05/11 04:54:28;;;;;;;10.60;9.57;;;;;;;;;;5067123;28;20033;-65
2022/05/11 04:56:53;;;;;;;9.85;9.15;;;;;;;;;;5067239;28;20232;-65
2022/05/11 04:59:19;;;;;;;9.70;9.00;;;;;;;;;;5067815;28;20050;-65
2022/05/11 05:01:47;;;;;;;9.18;8.57;;;;;;;;;;5067672;28;20404;-65
2022/05/11 05:04:13;;;;;;;10.30;9.60;;;;;;;;;;5067347;28;20446;-65
2022/05/11 05:06:38;;;;;;;9.40;8.80;;;;;;;;;;5067802;28;20029;-65
2022/05/11 05:09:05;;;;;;;12.07;11.10;;;;;;;;;;5059330;28;20024;-65
2022/05/11 05:11:31;;;;;;;10.10;9.40;;;;;;;;;;5060433;28;20039;-65
2022/05/11 05:13:56;;;;;;;13.10;12.27;;;;;;;;;;5066714;28;20024;-65
2022/05/11 05:16:22;;;;;;;11.38;10.68;;;;;;;;;;5067578;28;20497;-65
2022/05/11 05:18:47;;;;;;;10.75;10.05;;;;;;;;;;5066592;28;20047;-65
2022/05/11 05:21:13;;;;;;;13.05;12.27;;;;;;;;;;5068023;28;20027;-65
2022/05/11 05:23:38;;;;;;;11.07;10.18;;;;;;;;;;5067267;28;20365;-65
2022/05/11 05:26:04;;;;;;;10.55;9.88;;;;;;;;;;5067210;28;20093;-65
2022/05/11 05:31:17;;;;;;;10.75;10.05;;;;;;;;;;5067247;28;20056;-65
2022/05/11 05:33:43;;;;;;;11.32;10.52;;;;;;;;;;5066376;28;20264;-65
2022/05/11 05:36:10;;;;;;;13.68;12.77;;;;;;;;;;5067008;28;20461;-65
2022/05/11 05:38:38;;;;;;;9.20;8.60;;;;;;;;;;5067114;28;20101;-65
2022/05/11 05:41:08;;;;;;;11.15;10.45;;;;;;;;;;5066663;28;20541;-65
2022/05/11 05:43:33;;;;;;;11.13;10.43;;;;;;;;;;5065513;28;20039;-64
2022/05/11 05:45:58;;;;;;;9.77;9.10;;;;;;;;;;5066495;28;20532;-65
2022/05/11 05:48:24;;;;;;;9.85;8.95;;;;;;;;;;5066343;28;20064;-65
2022/05/11 05:50:50;;;;;;;8.13;7.53;;;;;;;;;;5066108;28;20202;-65
2022/05/11 05:53:19;;;;;;;9.15;8.45;;;;;;;;;;5065703;28;20111;-65
2022/05/11 05:55:49;;;;;;;8.20;7.60;;;;;;;;;;5065084;28;20024;-65
2022/05/11 05:58:18;;;;;;;8.18;7.57;;;;;;;;;;5065045;28;20032;-65
2022/05/11 06:00:45;;;;;;;9.23;8.23;;;;;;;;;;5066550;28;20634;-65
2022/05/11 06:03:12;;;;;;;7.70;7.00;;;;;;;;;;5065549;28;20405;-65
2022/05/11 06:05:38;;;;;;;8.02;7.45;;;;;;;;;;5066059;28;20263;-65
2022/05/11 06:08:04;;;;;;;9.57;7.28;;;;;;;;;;5067245;28;20625;-65
2022/05/11 06:10:29;;;;;;;8.43;7.72;;;;;;;;;;5066183;28;20040;-65
2022/05/11 06:12:55;;;;;;;7.78;7.25;;;;;;;;;;5064929;28;20028;-65
2022/05/11 06:15:20;;;;;;;7.25;6.75;;;;;;;;;;5066441;28;20097;-66
2022/05/11 06:17:45;;;;;;;7.85;7.25;;;;;;;;;;5066540;28;20615;-66
2022/05/11 06:20:12;;;;;;;7.40;6.90;;;;;;;;;;5066204;28;20024;-65
2022/05/11 06:22:38;;;;;;;8.18;7.57;;;;;;;;;;5066437;28;20024;-66
2022/05/11 06:25:04;;;;;;;7.03;6.53;;;;;;;;;;5066101;28;20038;-65
2022/05/11 06:27:29;;;;;;;7.72;7.15;;;;;;;;;;5065859;28;20036;-66
2022/05/11 06:29:57;;;;;;;8.48;7.88;;;;;;;;;;5064927;28;20028;-66
2022/05/11 06:32:23;;;;;;;8.68;8.07;;;;;;;;;;5082115;28;20536;-66
2022/05/11 06:34:49;;;;;;;9.60;9.00;;;;;;;;;;5065668;28;20035;-66
2022/05/11 06:37:15;;;;;;;7.90;7.40;;;;;;;;;;5065394;28;20495;-66
2022/05/11 06:39:41;;;;;;;8.75;8.02;;;;;;;;;;5066071;28;20036;-66
2022/05/11 06:42:12;;;;;;;10.30;9.60;;;;;;;;;;5064746;28;20036;-66
2022/05/11 06:44:37;;;;;;;;;;;;;;;;;;5067806;28;20467;-66
2022/05/11 06:47:04;;;;;;;10.88;10.18;;;;;;;;;;5066211;28;19955;-66
2022/05/11 06:49:29;;;;;;;13.00;12.20;;;;;;;;;;5065982;28;20025;-67
2022/05/11 06:51:55;;;;;;;11.00;10.30;;;;;;;;;;5065917;28;20081;-66
2022/05/11 06:59:52;;;;;;;19.73;18.65;;;;;;;;;;5065025;28;20020;-66
2022/05/11 07:02:18;;;;;;;21.25;20.05;;;;;;;;;;5059751;28;20028;-66
2022/05/11 07:04:44;;;;;;;22.67;21.45;;;;;;;;;;5065659;28;20458;-67
2022/05/11 07:07:09;;;;;;;26.27;24.85;;;;;;;;;;5066103;28;20028;-68
2022/05/11 07:09:35;;;;;;;29.55;28.00;;;;;;;;;;5066330;28;20035;-67
2022/05/11 07:12:17;;;;;;;33.40;31.63;;;;;;;;;;5065244;28;20041;-70
2022/05/11 07:14:47;;;;;;;38.70;36.70;;;;;;;;;;5065644;28;20024;-67
2022/05/11 07:17:43;;;;;;;32.88;31.17;;;;;;;;;;5066135;28;20106;-68
2022/05/11 07:20:14;;;;;;;38.35;36.35;;;;;;;;;;5067352;28;20032;-68
2022/05/11 07:22:39;;;;;;;37.88;35.92;;;;;;;;;;5065633;28;20039;-68
2022/05/11 07:25:08;;;;;;;36.38;34.50;;;;;;;;;;5066344;28;20020;-67
2022/05/11 07:27:34;;;;;;;49.05;46.53;;;;;;;;;;5069361;28;20473;-67
2022/05/11 07:29:59;;;;;;;48.00;45.55;;;;;;;;;;5068505;28;20158;-67
2022/05/11 07:32:27;;;;;;;33.55;31.75;;;;;;;;;;5068832;28;20493;-68
2022/05/11 07:34:52;;;;;;;43.67;41.45;;;;;;;;;;5069076;28;20163;-67
2022/05/11 07:37:18;;;;;;;52.83;50.13;;;;;;;;;;5068877;28;20361;-70
2022/05/11 07:39:43;;;;;;;37.05;35.10;;;;;;;;;;5068745;28;20036;-68
2022/05/11 07:42:09;;;;;;;36.60;34.67;;;;;;;;;;5068951;28;20051;-68
2022/05/11 07:44:35;;;;;;;34.80;32.83;;;;;;;;;;5069169;28;20494;-68
2022/05/11 07:47:00;;;;;;;33.00;31.27;;;;;;;;;;5069357;28;20029;-69
2022/05/11 07:49:25;;;;;;;38.13;36.15;;;;;;;;;;5068291;28;20036;-67
2022/05/11 07:51:52;;;;;;;37.20;35.25;;;;;;;;;;5069224;28;20028;-69
2022/05/11 07:54:19;;;;;;;36.72;34.80;;;;;;;;;;5068371;28;20060;-68
2022/05/11 08:02:12;;;;;;;41.20;39.08;;;;;;;;;;5067898;28;20099;-69
2022/05/11 08:04:39;;;;;;;39.17;37.17;;;;;;;;;;5068575;28;20111;-69
2022/05/11 08:07:05;;;;;;;38.05;36.05;;;;;;;;;;5068727;28;20032;-73
2022/05/11 08:09:30;;;;;;;42.42;40.25;;;;;;;;;;5068102;28;20020;-70
2022/05/11 08:11:56;;;;;;;52.25;49.58;;;;;;;;;;5060972;28;20564;-69
2022/05/11 08:14:23;;;;;;;48.65;46.13;;;;;;;;;;5068553;28;20025;-72
2022/05/11 08:16:52;;;;;;;44.53;41.78;;;;;;;;;;5068474;28;20033;-70
2022/05/11 08:19:22;;;;;;;48.97;46.38;;;;;;;;;;5068157;28;20720;-69
2022/05/11 08:21:49;;;;;;;48.10;45.60;;;;;;;;;;5068945;28;20723;-72
2022/05/11 08:24:15;;;;;;;51.92;49.22;;;;;;;;;;5068242;28;20105;-69
2022/05/11 08:26:42;;;;;;;44.47;42.10;;;;;;;;;;5067762;28;20084;-69
2022/05/11 08:29:08;;;;;;;40.70;38.47;;;;;;;;;;5067059;28;20166;-70
2022/05/11 08:34:19;;;;;;;31.17;29.58;;;;;;;;;;5066385;28;20041;-69
2022/05/11 08:36:47;;;;;;;34.00;32.20;;;;;;;;;;5067274;28;20648;-68
2022/05/11 08:39:13;;;;;;;23.83;22.50;;;;;;;;;;5068387;28;20025;-69
2022/05/11 08:41:49;;;;;;;26.85;25.42;;;;;;;;;;5067844;28;20498;-70
2022/05/11 08:44:16;;;;;;;18.85;17.83;;;;;;;;;;5068125;28;20025;-71
2022/05/11 08:46:55;;;;;;;21.83;20.65;;;;;;;;;;5067062;28;20031;-70
2022/05/11 08:49:38;;;;;;;20.10;18.90;;;;;;;;;;5067698;28;20021;-70
2022/05/11 08:52:10;;;;;;;21.45;20.27;;;;;;;;;;5067869;28;20056;-70
2022/05/11 08:54:59;;;;;;;19.27;18.20;;;;;;;;;;5067222;28;20020;-73
2022/05/11 08:57:26;;;;;;;25.27;23.95;;;;;;;;;;5067844;28;20032;-73
2022/05/11 08:59:58;;;;;;;20.63;19.52;;;;;;;;;;5081897;28;20384;-71
2022/05/11 09:02:45;;;;;;;22.58;21.17;;;;;;;;;;5065634;28;20033;-71
2022/05/11 09:05:11;;;;;;;21.95;20.75;;;;;;;;;;5066002;28;20441;-72
2022/05/11 09:07:41;;;;;;;25.92;24.52;;;;;;;;;;5067486;28;20108;-69
2022/05/11 09:10:09;;;;;;;30.98;29.35;;;;;;;;;;5062894;28;20043;-70
2022/05/11 09:12:35;;;;;;;35.25;33.40;;;;;;;;;;5064436;28;20036;-72
2022/05/11 09:15:03;;;;;;;32.30;30.58;;;;;;;;;;5067330;28;20040;-72
2022/05/11 09:17:34;;;;;;;26.48;25.05;;;;;;;;;;5067396;28;20024;-73
2022/05/11 09:20:08;;;;;;;43.55;41.35;;;;;;;;;;5080864;28;20037;-71
2022/05/11 09:22:59;;;;;;;47.60;45.13;;;;;;;;;;5066358;28;20381;-69
2022/05/11 09:25:31;;;;;;;54.45;51.70;;;;;;;;;;5066663;28;20048;-70
2022/05/11 09:28:12;;;;;;;51.50;48.90;;;;;;;;;;5066756;28;20119;-71
2022/05/11 09:30:39;;;;;;;41.30;39.17;;;;;;;;;;5063517;28;20502;-72
2022/05/11 09:33:24;;;;;;;50.72;48.13;;;;;;;;;;5043813;28;20032;-73
2022/05/11 09:35:49;;;;;;;39.65;37.58;;;;;;;;;;5066761;28;20066;-70
2022/05/11 09:38:18;;;;;;;44.95;42.63;;;;;;;;;;5065844;28;20028;-68
2022/05/11 09:41:00;;;;;;;50.15;47.53;;;;;;;;;;5078766;28;20041;-71
2022/05/11 09:43:32;;;;;;;49.70;47.00;;;;;;;;;;5059639;28;20047;-72
2022/05/11 09:45:58;;;;;;;53.33;50.60;;;;;;;;;;5066855;28;20028;-72
2022/05/11 09:48:28;;;;;;;44.25;41.95;;;;;;;;;;5064350;28;20055;-71
2022/05/11 09:51:25;;;;;;;45.97;43.65;;;;;;;;;;5059073;28;20032;-69
2022/05/11 09:54:00;;;;;;;44.17;41.92;;;;;;;;;;5070091;28;20036;-70
2022/05/11 09:56:32;;;;;;;63.75;60.55;;;;;;;;;;5065063;28;20032;-71
2022/05/11 09:59:16;;;;;;;74.07;70.30;;;;;;;;;;5066765;28;20101;-71
2022/05/11 10:01:42;;;;;;;55.47;52.65;;;;;;;;;;5065869;28;20581;-70
2022/05/11 10:04:09;;;;;;;81.78;77.68;;;;;;;;;;5065473;28;20075;-70
2022/05/11 10:06:42;;;;;;;57.45;54.53;;;;;;;;;;5066640;28;20109;-70
2022/05/11 10:09:09;;;;;;;89.88;85.38;;;;;;;;;;5065786;28;20095;-69
2022/05/11 10:11:44;;;;;;;151.05;143.50;;;;;;;;;;5066603;28;20066;-70
2022/05/11 10:22:53;;;;;;;61.55;58.42;;;;;;;;;;5065519;28;20444;-66
2022/05/11 10:25:24;;;;;;;59.80;56.80;;;;;;;;;;5059343;28;20036;-66
2022/05/11 10:28:05;;;;;;;73.30;69.63;;;;;;;;;;5065319;28;20036;-64
2022/05/11 10:30:55;;;;;;;92.43;87.88;;;;;;;;;;5063125;28;20047;-64
2022/05/11 10:33:23;;;;;;;;;;;;;;;;;;5066363;28;20135;-63
2022/05/11 10:36:24;;;;;;;73.65;69.97;;;;;;;;;;5064929;28;19916;-64
2022/05/11 10:39:06;;;;;;;63.95;60.72;;;;;;;;;;5064977;28;20044;-64
2022/05/11 10:41:45;;;;;;;53.60;50.90;;;;;;;;;;5065279;28;20535;-64
2022/05/11 10:45:01;;;;;;;76.75;72.88;;;;;;;;;;5066560;28;20028;-65
2022/05/11 10:47:33;;;;;;;103.75;98.55;;;;;;;;;;5064790;28;20549;-63
2022/05/11 10:50:29;;;;;;;101.22;96.22;;;;;;;;;;5063861;28;20039;-63
2022/05/11 10:52:57;;;;;;;132.88;126.30;;;;;;;;;;5064614;28;20040;-63
2022/05/11 10:55:56;;;;;;;142.20;135.18;;;;;;;;;;5065924;28;20021;-64
2022/05/11 10:58:47;;;;;;;137.43;130.68;;;;;;;;;;5063809;28;20033;-66
2022/05/11 11:01:17;;;;;;;136.02;129.32;;;;;;;;;;5069408;28;20044;-63
2022/05/11 11:04:03;;;;;;;143.30;136.23;;;;;;;;;;5069574;28;20029;-65
2022/05/11 11:09:28;;;;;;;172.02;163.57;;;;;;;;;;5069860;28;20118;-64
2022/05/11 11:12:06;;;;;;;165.18;157.10;;;;;;;;;;5069194;28;20514;-63
2022/05/11 11:14:36;;;;;;;147.90;140.43;;;;;;;;;;5069293;28;20024;-63
2022/05/11 11:17:05;;;;;;;136.07;129.40;;;;;;;;;;5083888;28;20032;-65
2022/05/11 11:19:32;;;;;;;151.95;144.48;;;;;;;;;;5065985;28;20075;-65
2022/05/11 11:22:00;;;;;;;155.52;147.88;;;;;;;;;;5069502;28;20049;-65
2022/05/11 11:24:27;;;;;;;164.50;156.38;;;;;;;;;;5069672;28;20024;-64
2022/05/11 11:27:05;;;;;;;160.13;152.27;;;;;;;;;;5068648;28;20020;-64
2022/05/11 11:29:33;;;;;;;170.85;162.23;;;;;;;;;;5064066;28;20033;-63
2022/05/11 11:32:01;;;;;;;141.93;134.90;;;;;;;;;;5067763;28;20032;-70
2022/05/11 11:34:31;;;;;;;80.43;76.43;;;;;;;;;;5068461;28;20090;-72
2022/05/11 11:36:58;;;;;;;96.32;91.55;;;;;;;;;;5068531;28;20024;-68
2022/05/11 11:39:52;;;;;;;112.85;107.30;;;;;;;;;;5069593;28;20039;-68
2022/05/11 11:42:46;;;;;;;90.18;85.70;;;;;;;;;;5084640;28;20056;-69
2022/05/11 11:45:39;;;;;;;111.63;106.13;;;;;;;;;;5069227;28;20077;-69
2022/05/11 11:48:23;;;;;;;88.13;83.80;;;;;;;;;;5068206;28;20032;-70
2022/05/11 11:50:55;;;;;;;76.40;72.43;;;;;;;;;;5068611;28;20419;-70
2022/05/11 11:53:42;;;;;;;81.15;77.15;;;;;;;;;;5069456;28;20148;-69
2022/05/11 11:56:23;;;;;;;73.97;70.30;;;;;;;;;;5068158;28;20568;-73
2022/05/11 11:59:04;;;;;;;74.18;70.53;;;;;;;;;;5039897;28;20115;-69
2022/05/11 12:01:33;;;;;;;69.70;66.20;;;;;;;;;;5069009;28;20555;-69
2022/05/11 12:04:09;;;;;;;67.97;64.57;;;;;;;;;;5068233;28;20533;-69
2022/05/11 12:15:03;;;;;;;79.30;75.38;;;;;;;;;;5070381;28;20024;-69
2022/05/11 12:17:36;;;;;;;88.15;83.80;;;;;;;;;;5068793;28;20024;-71
2022/05/11 12:20:17;;;;;;;78.20;74.32;;;;;;;;;;5067865;28;20036;-67
2022/05/11 12:22:46;;;;;;;83.55;79.38;;;;;;;;;;5067495;28;20052;-68
2022/05/11 12:25:36;;;;;;;82.77;78.60;;;;;;;;;;5067618;28;20085;-66
2022/05/11 12:28:03;;;;;;;;;;;;;;;;;;5067846;28;20639;-69
2022/05/11 12:30:40;;;;;;;78.05;74.15;;;;;;;;;;5068505;28;19913;-67
2022/05/11 12:33:07;;;;;;;76.90;73.05;;;;;;;;;;5067844;28;20035;-68
2022/05/11 12:35:38;;;;;;;85.15;80.95;;;;;;;;;;5068804;28;20028;-67
2022/05/11 12:38:07;;;;;;;78.22;74.30;;;;;;;;;;5068105;28;20513;-66
2022/05/11 12:40:45;;;;;;;79.70;75.75;;;;;;;;;;5068013;28;20032;-67
2022/05/11 12:43:26;;;;;;;72.07;68.47;;;;;;;;;;5067570;28;20343;-68
2022/05/11 12:45:55;;;;;;;61.72;58.63;;;;;;;;;;5068001;28;20028;-68
2022/05/11 12:48:25;;;;;;;71.97;68.40;;;;;;;;;;5066994;28;20039;-67
2022/05/11 12:51:12;;;;;;;71.68;68.13;;;;;;;;;;5068464;28;20674;-70
2022/05/11 12:53:47;;;;;;;61.50;58.40;;;;;;;;;;5068574;28;20203;-69
2022/05/11 12:56:21;;;;;;;79.53;75.57;;;;;;;;;;5067461;28;20028;-68
2022/05/11 12:58:58;;;;;;;61.40;58.30;;;;;;;;;;5067394;28;20064;-61
2022/05/11 13:01:30;;;;;;;65.85;62.58;;;;;;;;;;5067941;28;20505;-63
2022/05/11 13:04:00;;;;;;;54.45;51.67;;;;;;;;;;5065603;28;20598;-64
2022/05/11 13:06:32;;;;;;;55.50;52.70;;;;;;;;;;5068371;28;20090;-65
2022/05/11 13:09:25;;;;;;;55.10;52.30;;;;;;;;;;5067553;28;20755;-63
2022/05/11 13:11:52;;;;;;;54.05;51.25;;;;;;;;;;5065955;28;20111;-63
2022/05/11 13:14:21;;;;;;;70.20;66.60;;;;;;;;;;5067945;28;20142;-60
2022/05/11 13:16:53;;;;;;;61.80;58.73;;;;;;;;;;5067593;28;20520;-62
2022/05/11 13:19:29;;;;;;;65.53;62.25;;;;;;;;;;5066370;28;20302;-63
2022/05/11 13:21:57;;;;;;;63.08;59.92;;;;;;;;;;5067228;28;20039;-62
2022/05/11 13:24:58;;;;;;;73.32;69.68;;;;;;;;;;5067179;28;20163;-63
2022/05/11 13:27:40;;;;;;;61.13;58.05;;;;;;;;;;5064984;28;20588;-62
2022/05/11 13:30:15;;;;;;;63.75;60.55;;;;;;;;;;5066014;28;20044;-63
2022/05/11 13:32:47;;;;;;;133.38;126.72;;;;;;;;;;5066036;28;20033;-69
2022/05/11 13:35:25;;;;;;;101.80;96.70;;;;;;;;;;5066388;28;20028;-68
2022/05/11 13:38:09;;;;;;;72.20;68.60;;;;;;;;;;5065146;28;20092;-69
2022/05/11 13:40:36;;;;;;;74.22;70.50;;;;;;;;;;5066757;28;20047;-67
2022/05/11 13:43:16;;;;;;;159.10;151.18;;;;;;;;;;5066671;28;20492;-68
2022/05/11 13:46:00;;;;;;;;;;;;;;;;;;5067217;28;20050;-71
2022/05/11 13:48:49;;;;;;;124.22;118.00;;;;;;;;;;5065449;28;20501;-68
2022/05/11 13:51:22;;;;;;;84.07;79.88;;;;;;;;;;5067109;28;20109;-71
2022/05/11 13:53:52;;;;;;;116.85;111.03;;;;;;;;;;5066651;28;20064;-68
2022/05/11 13:56:17;;;;;;;121.38;115.38;;;;;;;;;;5066516;28;20079;-69
2022/05/11 13:59:00;;;;;;;123.88;117.72;;;;;;;;;;5065440;28;20060;-65
2022/05/11 14:01:28;;;;;;;100.50;95.47;;;;;;;;;;5066529;28;20453;-67
2022/05/11 14:03:59;;;;;;;119.50;113.57;;;;;;;;;;5065732;28;20355;-68
2022/05/11 14:06:54;;;;;;;205.38;195.40;;;;;;;;;;5065877;28;20034;-68
2022/05/11 14:09:19;;;;;;;205.30;195.30;;;;;;;;;;5064217;28;20029;-70
2022/05/11 14:11:45;;;;;;;183.45;174.50;;;;;;;;;;5067123;28;20052;-68
2022/05/11 14:14:10;;;;;;;159.82;151.90;;;;;;;;;;5066166;28;20024;-67
2022/05/11 14:16:35;;;;;;;159.40;151.57;;;;;;;;;;5066749;28;20020;-68
2022/05/11 14:19:01;;;;;;;124.18;117.97;;;;;;;;;;5080753;28;20155;-68
2022/05/11 14:21:27;;;;;;;131.05;124.57;;;;;;;;;;5066525;28;20339;-69
2022/05/11 14:23:53;;;;;;;138.20;131.38;;;;;;;;;;5065460;28;20031;-66
2022/05/11 14:26:18;;;;;;;171.63;163.23;;;;;;;;;;5066873;28;20119;-68
2022/05/11 14:28:45;;;;;;;130.77;124.22;;;;;;;;;;5061927;28;20032;-68
2022/05/11 14:31:14;;;;;;;153.25;145.68;;;;;;;;;;5061650;28;20601;-68
2022/05/11 14:33:39;;;;;;;120.45;114.45;;;;;;;;;;5065303;28;20051;-68
2022/05/11 14:36:07;;;;;;;69.95;66.45;;;;;;;;;;5066318;28;20021;-67
2022/05/11 14:38:33;;;;;;;55.58;52.78;;;;;;;;;;5065762;28;20039;-69
2022/05/11 14:40:59;;;;;;;104.18;99.05;;;;;;;;;;5066331;28;20037;-67
2022/05/11 14:43:24;;;;;;;68.18;64.75;;;;;;;;;;5066712;28;20030;-68
2022/05/11 14:45:56;;;;;;;60.85;57.80;;;;;;;;;;5066077;28;20025;-68
2022/05/11 14:48:30;;;;;;;86.45;82.18;;;;;;;;;;5063753;28;20029;-68
2022/05/11 14:50:56;;;;;;;85.88;81.60;;;;;;;;;;5066144;28;20650;-68
2022/05/11 14:53:22;;;;;;;94.10;89.30;;;;;;;;;;5066558;28;20056;-68
2022/05/11 14:55:47;;;;;;;80.85;76.82;;;;;;;;;;5066601;28;20446;-67
2022/05/11 15:03:42;;;;;;;105.93;100.70;;;;;;;;;;5065529;28;20037;-68
2022/05/11 15:06:10;;;;;;;77.68;73.80;;;;;;;;;;5066141;28;20615;-66
2022/05/11 15:08:36;;;;;;;120.93;115.00;;;;;;;;;;5065307;28;20029;-68
2022/05/11 15:13:46;;;;;;;85.00;80.80;;;;;;;;;;5066034;28;20020;-67
2022/05/11 15:16:11;;;;;;;101.25;96.22;;;;;;;;;;5066372;28;20039;-67
2022/05/11 15:18:38;;;;;;;86.78;82.47;;;;;;;;;;5061871;28;20250;-67
2022/05/11 15:21:04;;;;;;;130.68;124.20;;;;;;;;;;5065792;28;20183;-69
2022/05/11 15:23:30;;;;;;;129.88;123.45;;;;;;;;;;5064487;28;20481;-68
2022/05/11 15:25:56;;;;;;;104.18;99.03;;;;;;;;;;5066198;28;20031;-67
2022/05/11 15:28:21;;;;;;;115.53;109.60;;;;;;;;;;5062534;28;20552;-67
2022/05/11 15:30:48;;;;;;;69.45;65.95;;;;;;;;;;5060214;28;20028;-65
2022/05/11 15:33:21;;;;;;;83.88;79.68;;;;;;;;;;5063854;28;20051;-68
2022/05/11 15:35:47;;;;;;;95.72;91.00;;;;;;;;;;5064968;28;20212;-65
2022/05/11 15:38:13;;;;;;;122.97;116.88;;;;;;;;;;5064305;28;20028;-66
2022/05/11 15:40:40;;;;;;;111.45;105.97;;;;;;;;;;5064641;28;20039;-66